sensor_id;sensor_type;location;lat;lon;timestamp;P1;durP1;ratioP1;P2;durP2;ratioP2
7080;SDS011;3582;51.506;11.948;2023-07-24T00:00:16;5.50;;;1.90;;
7080;SDS011;3582;51.506;11.948;2023-07-24T00:02:42;1.90;;;1.80;;
7080;SDS011;3582;51.506;11.948;2023-07-24T00:05:08;3.70;;;1.90;;
7080;SDS011;3582;51.506;11.948;2023-07-24T00:07:35;3.00;;;1.87;;
7080;SDS011;3582;51.506;11.948;2023-07-24T00:10:01;2.17;;;2.07;;
7080;SDS011;3582;51.506;11.948;2023-07-24T00:12:27;3.10;;;2.00;;
7080;SDS011;3582;51.506;11.948;2023-07-24T00:14:53;2.27;;;1.43;;
7080;SDS011;3582;51.506;11.948;2023-07-24T00:17:19;1.60;;;1.50;;
7080;SDS011;3582;51.506;11.948;2023-07-24T00:19:45;1.80;;;1.67;;
7080;SDS011;3582;51.506;11.948;2023-07-24T00:22:11;2.10;;;1.77;;
7080;SDS011;3582;51.506;11.948;2023-07-24T00:24:37;1.97;;;1.87;;
7080;SDS011;3582;51.506;11.948;2023-07-24T00:27:03;2.97;;;1.57;;
7080;SDS011;3582;51.506;11.948;2023-07-24T00:29:29;1.70;;;1.60;;
7080;SDS011;3582;51.506;11.948;2023-07-24T00:31:55;3.50;;;1.63;;
7080;SDS011;3582;51.506;11.948;2023-07-24T00:34:20;6.20;;;1.63;;
7080;SDS011;3582;51.506;11.948;2023-07-24T00:36:46;2.97;;;1.73;;
7080;SDS011;3582;51.506;11.948;2023-07-24T00:39:15;2.17;;;1.70;;
7080;SDS011;3582;51.506;11.948;2023-07-24T00:41:42;1.40;;;1.30;;
7080;SDS011;3582;51.506;11.948;2023-07-24T00:44:08;1.60;;;1.50;;
7080;SDS011;3582;51.506;11.948;2023-07-24T00:46:34;1.80;;;1.70;;
7080;SDS011;3582;51.506;11.948;2023-07-24T00:49:00;2.40;;;1.93;;
7080;SDS011;3582;51.506;11.948;2023-07-24T00:51:28;2.30;;;1.60;;
7080;SDS011;3582;51.506;11.948;2023-07-24T00:53:55;1.43;;;1.33;;
7080;SDS011;3582;51.506;11.948;2023-07-24T00:56:21;1.90;;;1.53;;
7080;SDS011;3582;51.506;11.948;2023-07-24T00:58:47;3.23;;;1.70;;
7080;SDS011;3582;51.506;11.948;2023-07-24T01:01:14;1.90;;;1.80;;
7080;SDS011;3582;51.506;11.948;2023-07-24T01:03:40;1.70;;;1.60;;
7080;SDS011;3582;51.506;11.948;2023-07-24T01:06:08;2.80;;;1.53;;
7080;SDS011;3582;51.506;11.948;2023-07-24T01:08:34;1.83;;;1.43;;
7080;SDS011;3582;51.506;11.948;2023-07-24T01:11:03;2.67;;;1.70;;
7080;SDS011;3582;51.506;11.948;2023-07-24T01:13:32;1.77;;;1.60;;
7080;SDS011;3582;51.506;11.948;2023-07-24T01:16:14;1.60;;;1.50;;
7080;SDS011;3582;51.506;11.948;2023-07-24T01:18:41;2.10;;;2.00;;
7080;SDS011;3582;51.506;11.948;2023-07-24T01:21:09;2.40;;;1.60;;
7080;SDS011;3582;51.506;11.948;2023-07-24T01:26:19;2.10;;;2.00;;
7080;SDS011;3582;51.506;11.948;2023-07-24T01:28:48;3.40;;;1.77;;
7080;SDS011;3582;51.506;11.948;2023-07-24T01:31:14;1.43;;;1.43;;
7080;SDS011;3582;51.506;11.948;2023-07-24T01:33:41;2.00;;;1.90;;
7080;SDS011;3582;51.506;11.948;2023-07-24T01:36:07;1.93;;;1.73;;
7080;SDS011;3582;51.506;11.948;2023-07-24T01:38:34;1.60;;;1.50;;
7080;SDS011;3582;51.506;11.948;2023-07-24T01:41:00;2.30;;;2.10;;
7080;SDS011;3582;51.506;11.948;2023-07-24T01:43:26;2.77;;;1.70;;
7080;SDS011;3582;51.506;11.948;2023-07-24T01:45:52;1.80;;;1.70;;
7080;SDS011;3582;51.506;11.948;2023-07-24T01:48:18;2.70;;;1.90;;
7080;SDS011;3582;51.506;11.948;2023-07-24T01:50:44;3.40;;;3.10;;
7080;SDS011;3582;51.506;11.948;2023-07-24T01:53:10;2.53;;;2.33;;
7080;SDS011;3582;51.506;11.948;2023-07-24T01:55:36;3.43;;;1.70;;
7080;SDS011;3582;51.506;11.948;2023-07-24T01:58:02;4.20;;;1.97;;
7080;SDS011;3582;51.506;11.948;2023-07-24T02:00:29;5.27;;;2.10;;
7080;SDS011;3582;51.506;11.948;2023-07-24T02:02:54;2.50;;;2.20;;
7080;SDS011;3582;51.506;11.948;2023-07-24T02:05:21;2.83;;;1.80;;
7080;SDS011;3582;51.506;11.948;2023-07-24T02:07:47;22.10;;;4.70;;
7080;SDS011;3582;51.506;11.948;2023-07-24T02:10:13;2.07;;;1.87;;
7080;SDS011;3582;51.506;11.948;2023-07-24T02:12:39;2.03;;;1.90;;
7080;SDS011;3582;51.506;11.948;2023-07-24T02:15:05;3.27;;;2.93;;
7080;SDS011;3582;51.506;11.948;2023-07-24T02:17:31;3.83;;;2.40;;
7080;SDS011;3582;51.506;11.948;2023-07-24T02:19:57;3.43;;;3.13;;
7080;SDS011;3582;51.506;11.948;2023-07-24T02:22:23;2.00;;;1.90;;
7080;SDS011;3582;51.506;11.948;2023-07-24T02:24:49;2.03;;;1.93;;
7080;SDS011;3582;51.506;11.948;2023-07-24T02:27:28;2.83;;;2.40;;
7080;SDS011;3582;51.506;11.948;2023-07-24T02:29:56;2.17;;;1.60;;
7080;SDS011;3582;51.506;11.948;2023-07-24T02:32:22;2.23;;;2.13;;
7080;SDS011;3582;51.506;11.948;2023-07-24T02:34:49;6.37;;;2.57;;
7080;SDS011;3582;51.506;11.948;2023-07-24T02:37:15;8.33;;;2.90;;
7080;SDS011;3582;51.506;11.948;2023-07-24T02:39:41;5.03;;;3.63;;
7080;SDS011;3582;51.506;11.948;2023-07-24T02:42:07;4.50;;;2.90;;
7080;SDS011;3582;51.506;11.948;2023-07-24T02:44:36;2.40;;;2.03;;
7080;SDS011;3582;51.506;11.948;2023-07-24T02:47:02;1.70;;;1.60;;
7080;SDS011;3582;51.506;11.948;2023-07-24T02:49:28;2.13;;;1.97;;
7080;SDS011;3582;51.506;11.948;2023-07-24T02:51:54;4.70;;;2.60;;
7080;SDS011;3582;51.506;11.948;2023-07-24T02:54:20;2.80;;;2.10;;
7080;SDS011;3582;51.506;11.948;2023-07-24T02:56:46;6.40;;;2.67;;
7080;SDS011;3582;51.506;11.948;2023-07-24T02:59:12;2.50;;;2.30;;
7080;SDS011;3582;51.506;11.948;2023-07-24T03:01:38;2.90;;;2.57;;
7080;SDS011;3582;51.506;11.948;2023-07-24T03:04:04;2.23;;;2.03;;
7080;SDS011;3582;51.506;11.948;2023-07-24T03:06:31;3.23;;;3.03;;
7080;SDS011;3582;51.506;11.948;2023-07-24T03:08:57;2.37;;;2.17;;
7080;SDS011;3582;51.506;11.948;2023-07-24T03:11:23;3.13;;;2.20;;
7080;SDS011;3582;51.506;11.948;2023-07-24T03:13:49;2.90;;;2.20;;
7080;SDS011;3582;51.506;11.948;2023-07-24T03:16:14;2.23;;;2.00;;
7080;SDS011;3582;51.506;11.948;2023-07-24T03:18:42;3.10;;;2.57;;
7080;SDS011;3582;51.506;11.948;2023-07-24T03:21:08;3.60;;;1.73;;
7080;SDS011;3582;51.506;11.948;2023-07-24T03:23:34;2.00;;;1.73;;
7080;SDS011;3582;51.506;11.948;2023-07-24T03:26:00;4.80;;;2.87;;
7080;SDS011;3582;51.506;11.948;2023-07-24T03:28:26;3.43;;;2.50;;
7080;SDS011;3582;51.506;11.948;2023-07-24T03:30:52;43.73;;;8.47;;
7080;SDS011;3582;51.506;11.948;2023-07-24T03:33:20;4.10;;;3.43;;
7080;SDS011;3582;51.506;11.948;2023-07-24T03:35:46;18.40;;;5.30;;
7080;SDS011;3582;51.506;11.948;2023-07-24T03:38:11;3.97;;;3.07;;
7080;SDS011;3582;51.506;11.948;2023-07-24T03:40:37;4.67;;;3.33;;
7080;SDS011;3582;51.506;11.948;2023-07-24T03:43:03;3.70;;;2.70;;
7080;SDS011;3582;51.506;11.948;2023-07-24T03:45:30;5.10;;;4.00;;
7080;SDS011;3582;51.506;11.948;2023-07-24T03:47:56;5.10;;;3.13;;
7080;SDS011;3582;51.506;11.948;2023-07-24T03:50:22;10.57;;;5.00;;
7080;SDS011;3582;51.506;11.948;2023-07-24T03:52:48;5.00;;;3.50;;
7080;SDS011;3582;51.506;11.948;2023-07-24T03:55:14;3.47;;;2.30;;
7080;SDS011;3582;51.506;11.948;2023-07-24T03:57:40;2.60;;;2.40;;
7080;SDS011;3582;51.506;11.948;2023-07-24T04:00:06;7.07;;;3.67;;
7080;SDS011;3582;51.506;11.948;2023-07-24T04:02:32;4.50;;;2.93;;
7080;SDS011;3582;51.506;11.948;2023-07-24T04:04:58;6.80;;;2.60;;
7080;SDS011;3582;51.506;11.948;2023-07-24T04:07:24;5.33;;;2.50;;
7080;SDS011;3582;51.506;11.948;2023-07-24T04:09:50;9.23;;;2.70;;
7080;SDS011;3582;51.506;11.948;2023-07-24T04:12:16;2.80;;;2.60;;
7080;SDS011;3582;51.506;11.948;2023-07-24T04:14:42;2.50;;;2.30;;
7080;SDS011;3582;51.506;11.948;2023-07-24T04:17:08;8.20;;;3.23;;
7080;SDS011;3582;51.506;11.948;2023-07-24T04:19:34;3.70;;;3.03;;
7080;SDS011;3582;51.506;11.948;2023-07-24T04:22:00;5.20;;;3.20;;
7080;SDS011;3582;51.506;11.948;2023-07-24T04:24:26;10.37;;;5.27;;
7080;SDS011;3582;51.506;11.948;2023-07-24T04:26:52;8.43;;;3.80;;
7080;SDS011;3582;51.506;11.948;2023-07-24T04:29:18;10.77;;;3.43;;
7080;SDS011;3582;51.506;11.948;2023-07-24T04:31:48;8.70;;;3.30;;
7080;SDS011;3582;51.506;11.948;2023-07-24T04:34:14;3.63;;;3.30;;
7080;SDS011;3582;51.506;11.948;2023-07-24T04:36:40;10.67;;;4.83;;
7080;SDS011;3582;51.506;11.948;2023-07-24T04:39:06;3.93;;;3.10;;
7080;SDS011;3582;51.506;11.948;2023-07-24T04:41:32;5.03;;;3.83;;
7080;SDS011;3582;51.506;11.948;2023-07-24T04:43:58;2.63;;;2.43;;
7080;SDS011;3582;51.506;11.948;2023-07-24T04:46:24;5.43;;;3.63;;
7080;SDS011;3582;51.506;11.948;2023-07-24T04:48:50;4.17;;;3.10;;
7080;SDS011;3582;51.506;11.948;2023-07-24T04:51:16;5.67;;;3.43;;
7080;SDS011;3582;51.506;11.948;2023-07-24T04:53:43;3.63;;;3.33;;
7080;SDS011;3582;51.506;11.948;2023-07-24T04:56:09;5.33;;;2.77;;
7080;SDS011;3582;51.506;11.948;2023-07-24T04:58:35;7.77;;;3.20;;
7080;SDS011;3582;51.506;11.948;2023-07-24T05:01:02;5.00;;;3.50;;
7080;SDS011;3582;51.506;11.948;2023-07-24T05:03:29;2.77;;;2.57;;
7080;SDS011;3582;51.506;11.948;2023-07-24T05:05:55;12.10;;;4.47;;
7080;SDS011;3582;51.506;11.948;2023-07-24T05:08:21;15.90;;;5.20;;
7080;SDS011;3582;51.506;11.948;2023-07-24T05:10:47;3.30;;;2.90;;
7080;SDS011;3582;51.506;11.948;2023-07-24T05:13:13;7.57;;;4.60;;
7080;SDS011;3582;51.506;11.948;2023-07-24T05:15:39;5.90;;;3.60;;
7080;SDS011;3582;51.506;11.948;2023-07-24T05:18:04;3.33;;;2.60;;
7080;SDS011;3582;51.506;11.948;2023-07-24T05:20:30;7.57;;;4.20;;
7080;SDS011;3582;51.506;11.948;2023-07-24T05:22:56;4.10;;;3.23;;
7080;SDS011;3582;51.506;11.948;2023-07-24T05:25:22;2.60;;;2.40;;
7080;SDS011;3582;51.506;11.948;2023-07-24T05:27:48;7.93;;;3.10;;
7080;SDS011;3582;51.506;11.948;2023-07-24T05:30:14;4.93;;;3.30;;
7080;SDS011;3582;51.506;11.948;2023-07-24T05:32:40;5.40;;;3.00;;
7080;SDS011;3582;51.506;11.948;2023-07-24T05:35:06;3.13;;;2.70;;
7080;SDS011;3582;51.506;11.948;2023-07-24T05:37:32;2.83;;;2.53;;
7080;SDS011;3582;51.506;11.948;2023-07-24T05:39:58;3.57;;;3.10;;
7080;SDS011;3582;51.506;11.948;2023-07-24T05:42:24;8.90;;;6.07;;
7080;SDS011;3582;51.506;11.948;2023-07-24T05:44:50;4.43;;;2.73;;
7080;SDS011;3582;51.506;11.948;2023-07-24T05:47:16;3.00;;;2.80;;
7080;SDS011;3582;51.506;11.948;2023-07-24T05:49:42;8.73;;;3.70;;
7080;SDS011;3582;51.506;11.948;2023-07-24T05:52:08;6.23;;;3.27;;
7080;SDS011;3582;51.506;11.948;2023-07-24T05:54:34;3.40;;;3.07;;
7080;SDS011;3582;51.506;11.948;2023-07-24T05:57:00;6.30;;;4.00;;
7080;SDS011;3582;51.506;11.948;2023-07-24T05:59:26;4.00;;;3.67;;
7080;SDS011;3582;51.506;11.948;2023-07-24T06:01:52;4.00;;;3.10;;
7080;SDS011;3582;51.506;11.948;2023-07-24T06:04:18;7.47;;;3.20;;
7080;SDS011;3582;51.506;11.948;2023-07-24T06:06:44;3.53;;;3.20;;
7080;SDS011;3582;51.506;11.948;2023-07-24T06:09:10;3.63;;;3.33;;
7080;SDS011;3582;51.506;11.948;2023-07-24T06:11:35;7.50;;;4.13;;
7080;SDS011;3582;51.506;11.948;2023-07-24T06:14:01;7.77;;;3.90;;
7080;SDS011;3582;51.506;11.948;2023-07-24T06:16:27;3.90;;;3.60;;
7080;SDS011;3582;51.506;11.948;2023-07-24T06:18:53;4.53;;;3.53;;
7080;SDS011;3582;51.506;11.948;2023-07-24T06:21:19;4.10;;;3.30;;
7080;SDS011;3582;51.506;11.948;2023-07-24T06:23:45;7.87;;;4.67;;
7080;SDS011;3582;51.506;11.948;2023-07-24T06:26:11;5.47;;;3.67;;
7080;SDS011;3582;51.506;11.948;2023-07-24T06:28:37;3.80;;;3.50;;
7080;SDS011;3582;51.506;11.948;2023-07-24T06:31:03;3.90;;;3.60;;
7080;SDS011;3582;51.506;11.948;2023-07-24T06:33:29;6.57;;;3.73;;
7080;SDS011;3582;51.506;11.948;2023-07-24T06:35:55;3.80;;;3.47;;
7080;SDS011;3582;51.506;11.948;2023-07-24T06:38:21;4.20;;;3.90;;
7080;SDS011;3582;51.506;11.948;2023-07-24T06:40:47;6.17;;;3.30;;
7080;SDS011;3582;51.506;11.948;2023-07-24T06:43:13;6.27;;;3.50;;
7080;SDS011;3582;51.506;11.948;2023-07-24T06:45:39;6.40;;;4.90;;
7080;SDS011;3582;51.506;11.948;2023-07-24T06:48:05;4.83;;;4.33;;
7080;SDS011;3582;51.506;11.948;2023-07-24T06:50:31;4.60;;;4.20;;
7080;SDS011;3582;51.506;11.948;2023-07-24T06:52:56;3.90;;;3.50;;
7080;SDS011;3582;51.506;11.948;2023-07-24T06:55:22;4.20;;;3.90;;
7080;SDS011;3582;51.506;11.948;2023-07-24T06:57:48;3.23;;;3.03;;
7080;SDS011;3582;51.506;11.948;2023-07-24T07:00:14;4.37;;;3.47;;
7080;SDS011;3582;51.506;11.948;2023-07-24T07:02:40;3.53;;;3.23;;
7080;SDS011;3582;51.506;11.948;2023-07-24T07:05:06;3.30;;;3.10;;
7080;SDS011;3582;51.506;11.948;2023-07-24T07:07:32;3.23;;;2.93;;
7080;SDS011;3582;51.506;11.948;2023-07-24T07:09:58;11.70;;;4.60;;
7080;SDS011;3582;51.506;11.948;2023-07-24T07:12:24;4.77;;;3.90;;
7080;SDS011;3582;51.506;11.948;2023-07-24T07:14:50;6.87;;;3.43;;
7080;SDS011;3582;51.506;11.948;2023-07-24T07:17:16;4.07;;;3.57;;
7080;SDS011;3582;51.506;11.948;2023-07-24T07:19:42;5.73;;;3.93;;
7080;SDS011;3582;51.506;11.948;2023-07-24T07:22:08;4.37;;;3.97;;
7080;SDS011;3582;51.506;11.948;2023-07-24T07:24:34;5.83;;;4.03;;
7080;SDS011;3582;51.506;11.948;2023-07-24T07:27:00;10.07;;;5.13;;
7080;SDS011;3582;51.506;11.948;2023-07-24T07:29:26;4.17;;;3.83;;
7080;SDS011;3582;51.506;11.948;2023-07-24T07:31:52;6.00;;;3.90;;
7080;SDS011;3582;51.506;11.948;2023-07-24T07:34:18;4.83;;;4.30;;
7080;SDS011;3582;51.506;11.948;2023-07-24T07:36:43;4.50;;;4.10;;
7080;SDS011;3582;51.506;11.948;2023-07-24T07:39:09;5.10;;;4.00;;
7080;SDS011;3582;51.506;11.948;2023-07-24T07:41:35;7.10;;;4.20;;
7080;SDS011;3582;51.506;11.948;2023-07-24T07:44:01;6.13;;;4.80;;
7080;SDS011;3582;51.506;11.948;2023-07-24T07:46:27;4.73;;;4.27;;
7080;SDS011;3582;51.506;11.948;2023-07-24T07:48:53;8.20;;;4.77;;
7080;SDS011;3582;51.506;11.948;2023-07-24T07:51:19;4.50;;;3.67;;
7080;SDS011;3582;51.506;11.948;2023-07-24T07:53:45;9.03;;;4.33;;
7080;SDS011;3582;51.506;11.948;2023-07-24T07:56:11;6.50;;;4.73;;
7080;SDS011;3582;51.506;11.948;2023-07-24T07:58:37;5.53;;;4.60;;
7080;SDS011;3582;51.506;11.948;2023-07-24T08:01:04;8.23;;;4.80;;
7080;SDS011;3582;51.506;11.948;2023-07-24T08:03:30;4.77;;;4.43;;
7080;SDS011;3582;51.506;11.948;2023-07-24T08:05:56;4.93;;;4.50;;
7080;SDS011;3582;51.506;11.948;2023-07-24T08:08:23;5.20;;;4.57;;
7080;SDS011;3582;51.506;11.948;2023-07-24T08:10:49;6.33;;;4.47;;
7080;SDS011;3582;51.506;11.948;2023-07-24T08:13:15;8.00;;;5.33;;
7080;SDS011;3582;51.506;11.948;2023-07-24T08:15:41;7.23;;;5.23;;
7080;SDS011;3582;51.506;11.948;2023-07-24T08:18:07;5.03;;;4.60;;
7080;SDS011;3582;51.506;11.948;2023-07-24T08:20:36;10.47;;;7.13;;
7080;SDS011;3582;51.506;11.948;2023-07-24T08:23:02;5.33;;;4.83;;
7080;SDS011;3582;51.506;11.948;2023-07-24T08:25:28;7.40;;;4.83;;
7080;SDS011;3582;51.506;11.948;2023-07-24T08:27:54;4.73;;;4.33;;
7080;SDS011;3582;51.506;11.948;2023-07-24T08:30:20;5.50;;;5.07;;
7080;SDS011;3582;51.506;11.948;2023-07-24T08:32:46;4.93;;;4.53;;
7080;SDS011;3582;51.506;11.948;2023-07-24T08:35:15;9.47;;;5.40;;
7080;SDS011;3582;51.506;11.948;2023-07-24T08:37:44;6.80;;;4.80;;
7080;SDS011;3582;51.506;11.948;2023-07-24T08:40:10;5.37;;;4.50;;
7080;SDS011;3582;51.506;11.948;2023-07-24T08:42:39;4.63;;;4.23;;
7080;SDS011;3582;51.506;11.948;2023-07-24T08:45:15;8.30;;;5.10;;
7080;SDS011;3582;51.506;11.948;2023-07-24T08:47:42;9.70;;;5.20;;
7080;SDS011;3582;51.506;11.948;2023-07-24T08:50:11;5.17;;;4.67;;
7080;SDS011;3582;51.506;11.948;2023-07-24T08:52:38;5.67;;;4.93;;
7080;SDS011;3582;51.506;11.948;2023-07-24T08:55:05;6.50;;;4.40;;
7080;SDS011;3582;51.506;11.948;2023-07-24T08:57:31;5.40;;;4.53;;
7080;SDS011;3582;51.506;11.948;2023-07-24T08:59:57;9.77;;;5.50;;
7080;SDS011;3582;51.506;11.948;2023-07-24T09:02:25;7.90;;;5.47;;
7080;SDS011;3582;51.506;11.948;2023-07-24T09:04:51;7.37;;;5.47;;
7080;SDS011;3582;51.506;11.948;2023-07-24T09:07:17;5.37;;;4.90;;
7080;SDS011;3582;51.506;11.948;2023-07-24T09:09:44;5.57;;;4.40;;
7080;SDS011;3582;51.506;11.948;2023-07-24T09:12:12;6.33;;;4.73;;
7080;SDS011;3582;51.506;11.948;2023-07-24T09:14:41;5.97;;;5.40;;
7080;SDS011;3582;51.506;11.948;2023-07-24T09:17:10;5.87;;;5.37;;
7080;SDS011;3582;51.506;11.948;2023-07-24T09:19:37;6.20;;;5.60;;
7080;SDS011;3582;51.506;11.948;2023-07-24T09:22:10;4.57;;;4.27;;
7080;SDS011;3582;51.506;11.948;2023-07-24T09:24:36;8.60;;;6.40;;
7080;SDS011;3582;51.506;11.948;2023-07-24T09:27:04;6.20;;;5.20;;
7080;SDS011;3582;51.506;11.948;2023-07-24T09:29:31;5.70;;;5.20;;
7080;SDS011;3582;51.506;11.948;2023-07-24T09:31:58;5.83;;;5.20;;
7080;SDS011;3582;51.506;11.948;2023-07-24T09:34:24;6.03;;;5.30;;
7080;SDS011;3582;51.506;11.948;2023-07-24T09:36:53;8.17;;;6.13;;
7080;SDS011;3582;51.506;11.948;2023-07-24T09:39:24;4.80;;;4.47;;
7080;SDS011;3582;51.506;11.948;2023-07-24T09:41:50;6.47;;;5.13;;
7080;SDS011;3582;51.506;11.948;2023-07-24T09:44:17;5.37;;;4.97;;
7080;SDS011;3582;51.506;11.948;2023-07-24T09:46:43;5.20;;;4.70;;
7080;SDS011;3582;51.506;11.948;2023-07-24T09:49:09;8.33;;;4.47;;
7080;SDS011;3582;51.506;11.948;2023-07-24T09:51:36;9.00;;;5.90;;
7080;SDS011;3582;51.506;11.948;2023-07-24T09:54:06;5.77;;;5.17;;
7080;SDS011;3582;51.506;11.948;2023-07-24T09:56:35;5.70;;;5.20;;
7080;SDS011;3582;51.506;11.948;2023-07-24T09:59:02;6.77;;;5.33;;
7080;SDS011;3582;51.506;11.948;2023-07-24T10:01:29;6.57;;;5.50;;
7080;SDS011;3582;51.506;11.948;2023-07-24T10:03:57;6.57;;;5.97;;
7080;SDS011;3582;51.506;11.948;2023-07-24T10:06:24;8.20;;;6.27;;
7080;SDS011;3582;51.506;11.948;2023-07-24T10:08:52;6.57;;;5.83;;
7080;SDS011;3582;51.506;11.948;2023-07-24T10:11:18;7.63;;;5.50;;
7080;SDS011;3582;51.506;11.948;2023-07-24T10:13:44;6.40;;;5.70;;
7080;SDS011;3582;51.506;11.948;2023-07-24T10:16:11;13.73;;;6.20;;
7080;SDS011;3582;51.506;11.948;2023-07-24T10:18:43;8.40;;;5.70;;
7080;SDS011;3582;51.506;11.948;2023-07-24T10:21:13;8.10;;;6.40;;
7080;SDS011;3582;51.506;11.948;2023-07-24T10:23:41;6.40;;;5.73;;
7080;SDS011;3582;51.506;11.948;2023-07-24T10:26:08;6.13;;;5.53;;
7080;SDS011;3582;51.506;11.948;2023-07-24T10:28:37;7.07;;;5.97;;
7080;SDS011;3582;51.506;11.948;2023-07-24T10:31:06;7.13;;;6.43;;
7080;SDS011;3582;51.506;11.948;2023-07-24T10:33:35;8.13;;;6.20;;
7080;SDS011;3582;51.506;11.948;2023-07-24T10:36:06;7.77;;;6.70;;
7080;SDS011;3582;51.506;11.948;2023-07-24T10:38:35;5.73;;;5.13;;
7080;SDS011;3582;51.506;11.948;2023-07-24T10:41:02;8.00;;;6.20;;
7080;SDS011;3582;51.506;11.948;2023-07-24T10:43:28;8.43;;;6.07;;
7080;SDS011;3582;51.506;11.948;2023-07-24T10:45:54;10.77;;;5.97;;
7080;SDS011;3582;51.506;11.948;2023-07-24T10:48:21;7.30;;;5.60;;
7080;SDS011;3582;51.506;11.948;2023-07-24T10:50:48;8.30;;;6.90;;
7080;SDS011;3582;51.506;11.948;2023-07-24T10:53:15;7.03;;;6.17;;
7080;SDS011;3582;51.506;11.948;2023-07-24T10:55:45;10.80;;;6.40;;
7080;SDS011;3582;51.506;11.948;2023-07-24T10:58:12;8.00;;;7.20;;
7080;SDS011;3582;51.506;11.948;2023-07-24T11:00:45;6.77;;;6.23;;
7080;SDS011;3582;51.506;11.948;2023-07-24T11:03:14;6.63;;;5.97;;
7080;SDS011;3582;51.506;11.948;2023-07-24T11:05:41;7.37;;;6.77;;
7080;SDS011;3582;51.506;11.948;2023-07-24T11:08:17;7.10;;;6.30;;
7080;SDS011;3582;51.506;11.948;2023-07-24T11:10:44;9.63;;;7.10;;
7080;SDS011;3582;51.506;11.948;2023-07-24T11:13:11;7.37;;;6.77;;
7080;SDS011;3582;51.506;11.948;2023-07-24T11:15:37;8.20;;;7.03;;
7080;SDS011;3582;51.506;11.948;2023-07-24T11:18:03;6.70;;;6.10;;
7080;SDS011;3582;51.506;11.948;2023-07-24T11:20:33;7.30;;;6.60;;
7080;SDS011;3582;51.506;11.948;2023-07-24T11:22:59;11.80;;;7.27;;
7080;SDS011;3582;51.506;11.948;2023-07-24T11:25:25;7.53;;;6.83;;
7080;SDS011;3582;51.506;11.948;2023-07-24T11:27:51;7.70;;;7.00;;
7080;SDS011;3582;51.506;11.948;2023-07-24T11:30:20;6.80;;;6.27;;
7080;SDS011;3582;51.506;11.948;2023-07-24T11:32:47;8.60;;;7.80;;
7080;SDS011;3582;51.506;11.948;2023-07-24T11:35:13;9.73;;;6.47;;
7080;SDS011;3582;51.506;11.948;2023-07-24T11:37:39;7.30;;;6.30;;
7080;SDS011;3582;51.506;11.948;2023-07-24T11:40:06;7.10;;;6.50;;
7080;SDS011;3582;51.506;11.948;2023-07-24T11:42:38;6.30;;;5.80;;
7080;SDS011;3582;51.506;11.948;2023-07-24T11:45:04;7.00;;;6.30;;
7080;SDS011;3582;51.506;11.948;2023-07-24T11:47:30;6.50;;;6.00;;
7080;SDS011;3582;51.506;11.948;2023-07-24T11:49:57;7.23;;;6.23;;
7080;SDS011;3582;51.506;11.948;2023-07-24T11:52:24;6.60;;;6.00;;
7080;SDS011;3582;51.506;11.948;2023-07-24T11:54:56;6.93;;;6.33;;
7080;SDS011;3582;51.506;11.948;2023-07-24T11:57:26;8.60;;;6.73;;
7080;SDS011;3582;51.506;11.948;2023-07-24T11:59:52;7.00;;;6.10;;
7080;SDS011;3582;51.506;11.948;2023-07-24T12:02:18;8.43;;;7.40;;
7080;SDS011;3582;51.506;11.948;2023-07-24T12:04:44;7.43;;;6.83;;
7080;SDS011;3582;51.506;11.948;2023-07-24T12:07:10;5.83;;;5.43;;
7080;SDS011;3582;51.506;11.948;2023-07-24T12:09:36;7.40;;;6.80;;
7080;SDS011;3582;51.506;11.948;2023-07-24T12:12:03;6.83;;;6.23;;
7080;SDS011;3582;51.506;11.948;2023-07-24T12:14:30;7.90;;;7.17;;
7080;SDS011;3582;51.506;11.948;2023-07-24T12:17:02;7.37;;;6.27;;
7080;SDS011;3582;51.506;11.948;2023-07-24T12:19:34;7.50;;;6.90;;
7080;SDS011;3582;51.506;11.948;2023-07-24T12:22:01;7.70;;;7.10;;
7080;SDS011;3582;51.506;11.948;2023-07-24T12:24:29;6.40;;;5.83;;
7080;SDS011;3582;51.506;11.948;2023-07-24T12:26:55;7.50;;;6.80;;
7080;SDS011;3582;51.506;11.948;2023-07-24T12:29:21;9.30;;;7.33;;
7080;SDS011;3582;51.506;11.948;2023-07-24T12:31:47;7.83;;;7.07;;
7080;SDS011;3582;51.506;11.948;2023-07-24T12:34:13;10.90;;;9.47;;
7080;SDS011;3582;51.506;11.948;2023-07-24T12:36:39;7.20;;;6.50;;
7080;SDS011;3582;51.506;11.948;2023-07-24T12:39:05;7.63;;;7.03;;
7080;SDS011;3582;51.506;11.948;2023-07-24T12:41:31;6.60;;;5.83;;
7080;SDS011;3582;51.506;11.948;2023-07-24T12:43:57;8.73;;;6.80;;
7080;SDS011;3582;51.506;11.948;2023-07-24T12:46:23;6.90;;;6.30;;
7080;SDS011;3582;51.506;11.948;2023-07-24T12:48:49;8.23;;;6.73;;
7080;SDS011;3582;51.506;11.948;2023-07-24T12:51:15;7.47;;;6.63;;
7080;SDS011;3582;51.506;11.948;2023-07-24T12:53:41;6.80;;;6.20;;
7080;SDS011;3582;51.506;11.948;2023-07-24T12:56:07;6.53;;;6.03;;
7080;SDS011;3582;51.506;11.948;2023-07-24T12:58:33;7.90;;;6.60;;
7080;SDS011;3582;51.506;11.948;2023-07-24T13:00:59;6.73;;;6.17;;
7080;SDS011;3582;51.506;11.948;2023-07-24T13:03:25;6.53;;;6.03;;
7080;SDS011;3582;51.506;11.948;2023-07-24T13:05:51;10.43;;;7.97;;
7080;SDS011;3582;51.506;11.948;2023-07-24T13:08:17;12.30;;;7.23;;
7080;SDS011;3582;51.506;11.948;2023-07-24T13:10:46;8.53;;;6.23;;
7080;SDS011;3582;51.506;11.948;2023-07-24T13:13:12;10.73;;;7.10;;
7080;SDS011;3582;51.506;11.948;2023-07-24T13:15:38;9.63;;;6.30;;
7080;SDS011;3582;51.506;11.948;2023-07-24T13:18:04;6.43;;;5.80;;
7080;SDS011;3582;51.506;11.948;2023-07-24T13:20:30;8.20;;;6.97;;
7080;SDS011;3582;51.506;11.948;2023-07-24T13:22:56;6.90;;;6.20;;
7080;SDS011;3582;51.506;11.948;2023-07-24T13:25:22;8.83;;;7.87;;
7080;SDS011;3582;51.506;11.948;2023-07-24T13:27:49;6.93;;;6.27;;
7080;SDS011;3582;51.506;11.948;2023-07-24T13:30:15;9.23;;;7.23;;
7080;SDS011;3582;51.506;11.948;2023-07-24T13:32:43;8.27;;;7.37;;
7080;SDS011;3582;51.506;11.948;2023-07-24T13:35:09;8.57;;;7.77;;
7080;SDS011;3582;51.506;11.948;2023-07-24T13:37:35;8.10;;;7.27;;
7080;SDS011;3582;51.506;11.948;2023-07-24T13:40:01;12.40;;;8.20;;
7080;SDS011;3582;51.506;11.948;2023-07-24T13:42:27;8.40;;;6.67;;
7080;SDS011;3582;51.506;11.948;2023-07-24T13:44:53;14.70;;;8.90;;
7080;SDS011;3582;51.506;11.948;2023-07-24T13:47:19;8.33;;;7.33;;
7080;SDS011;3582;51.506;11.948;2023-07-24T13:49:46;8.43;;;6.93;;
7080;SDS011;3582;51.506;11.948;2023-07-24T13:52:12;6.80;;;6.10;;
7080;SDS011;3582;51.506;11.948;2023-07-24T13:54:38;6.90;;;6.30;;
7080;SDS011;3582;51.506;11.948;2023-07-24T13:57:04;9.37;;;7.00;;
7080;SDS011;3582;51.506;11.948;2023-07-24T13:59:33;6.30;;;5.80;;
7080;SDS011;3582;51.506;11.948;2023-07-24T14:01:59;6.67;;;5.40;;
7080;SDS011;3582;51.506;11.948;2023-07-24T14:04:25;6.63;;;6.13;;
7080;SDS011;3582;51.506;11.948;2023-07-24T14:06:51;6.93;;;6.33;;
7080;SDS011;3582;51.506;11.948;2023-07-24T14:09:17;7.00;;;5.80;;
7080;SDS011;3582;51.506;11.948;2023-07-24T14:11:43;7.80;;;6.17;;
7080;SDS011;3582;51.506;11.948;2023-07-24T14:14:09;7.07;;;6.43;;
7080;SDS011;3582;51.506;11.948;2023-07-24T14:16:36;6.43;;;5.67;;
7080;SDS011;3582;51.506;11.948;2023-07-24T14:19:02;7.87;;;6.33;;
7080;SDS011;3582;51.506;11.948;2023-07-24T14:21:28;8.13;;;6.63;;
7080;SDS011;3582;51.506;11.948;2023-07-24T14:23:54;6.90;;;6.23;;
7080;SDS011;3582;51.506;11.948;2023-07-24T14:26:20;7.00;;;6.40;;
7080;SDS011;3582;51.506;11.948;2023-07-24T14:28:48;6.63;;;6.13;;
7080;SDS011;3582;51.506;11.948;2023-07-24T14:31:14;7.00;;;6.10;;
7080;SDS011;3582;51.506;11.948;2023-07-24T14:33:40;7.53;;;6.73;;
7080;SDS011;3582;51.506;11.948;2023-07-24T14:36:06;9.53;;;7.17;;
7080;SDS011;3582;51.506;11.948;2023-07-24T14:38:32;9.80;;;7.30;;
7080;SDS011;3582;51.506;11.948;2023-07-24T14:40:58;7.40;;;6.53;;
7080;SDS011;3582;51.506;11.948;2023-07-24T14:43:24;6.83;;;6.33;;
7080;SDS011;3582;51.506;11.948;2023-07-24T14:45:50;9.43;;;6.87;;
7080;SDS011;3582;51.506;11.948;2023-07-24T14:48:16;6.70;;;6.10;;
7080;SDS011;3582;51.506;11.948;2023-07-24T14:50:42;7.47;;;6.70;;
7080;SDS011;3582;51.506;11.948;2023-07-24T14:53:08;9.77;;;7.73;;
7080;SDS011;3582;51.506;11.948;2023-07-24T14:55:34;9.40;;;7.13;;
7080;SDS011;3582;51.506;11.948;2023-07-24T14:58:00;7.13;;;6.40;;